Time;durP1;ratioP1;P1;durP2;ratioP2;P2;SDS_P1;SDS_P2;PMS_P1;PMS_P2;Temp;Humidity;BMP_temperature;BMP_pressure;BME280_temperature;BME280_humidity;BME280_pressure;Samples;Min_cycle;Max_cycle;Signal;HPM_P1;HPM_P2
2022/04/13 00:00:31;;;;;;;4.85;3.40;;;;;;;11.77;62.75;99754.91;5073437;28;20084;-83
2022/04/13 00:02:57;;;;;;;6.32;3.58;;;;;;;11.73;62.85;99759.50;5071769;28;20537;-84
2022/04/13 00:05:23;;;;;;;5.10;3.63;;;;;;;11.77;62.50;99763.81;5094380;22;20043;-80
2022/04/13 00:07:48;;;;;;;7.07;4.05;;;;;;;11.76;62.87;99766.53;5072339;28;20032;-80
2022/04/13 00:10:14;;;;;;;6.35;3.28;;;;;;;11.81;62.38;99769.88;5073354;28;20025;-81
2022/04/13 00:12:40;;;;;;;7.68;3.67;;;;;;;11.82;62.55;99768.94;5072393;28;20458;-81
2022/04/13 00:15:06;;;;;;;5.65;3.58;;;;;;;11.82;62.14;99766.28;5072705;28;20078;-81
2022/04/13 00:17:32;;;;;;;6.85;4.00;;;;;;;11.85;62.06;99766.16;5075281;28;20024;-81
2022/04/13 00:20:00;;;;;;;5.68;3.08;;;;;;;11.83;62.37;99768.88;5076176;28;20082;-80
2022/04/13 00:22:26;;;;;;;6.20;3.33;;;;;;;11.82;62.23;99766.28;5076520;28;20039;-81
2022/04/13 00:24:51;;;;;;;4.72;3.25;;;;;;;11.91;61.45;99760.50;5076374;28;20028;-80
2022/04/13 00:27:16;;;;;;;4.88;3.33;;;;;;;12.01;61.05;99770.81;5074650;28;20060;-80
2022/04/13 00:29:42;;;;;;;6.13;3.13;;;;;;;12.02;60.98;99768.06;5076149;28;20048;-80
2022/04/13 00:32:07;;;;;;;8.00;2.95;;;;;;;12.06;60.89;99771.50;5076221;28;20021;-81
2022/04/13 00:34:33;;;;;;;6.38;3.05;;;;;;;12.03;61.37;99774.28;5074825;28;20028;-81
2022/04/13 00:36:58;;;;;;;7.57;3.33;;;;;;;12.02;61.73;99768.06;5076186;28;20112;-81
2022/04/13 00:39:24;;;;;;;6.63;2.95;;;;;;;11.99;61.92;99770.00;5074794;28;20413;-81
2022/04/13 00:42:00;;;;;;;5.13;3.20;;;;;;;11.94;62.49;99770.19;5075943;28;20024;-80
2022/04/13 00:44:30;;;;;;;6.30;3.50;;;;;;;11.89;63.21;99766.84;5075293;28;20138;-80
2022/04/13 00:46:56;;;;;;;6.20;2.97;;;;;;;11.88;63.21;99763.31;5075783;28;20186;-81
2022/04/13 00:49:23;;;;;;;5.88;3.03;;;;;;;11.87;62.96;99763.38;5075595;28;20025;-81
2022/04/13 00:51:52;;;;;;;5.22;3.13;;;;;;;11.86;63.26;99767.88;5075646;28;20094;-81
2022/04/13 00:54:24;;;;;;;4.80;3.10;;;;;;;11.86;62.94;99767.88;5075411;28;20447;-80
2022/04/13 00:56:54;;;;;;;5.82;3.20;;;;;;;11.80;64.36;99763.66;5075424;28;20032;-80
2022/04/13 00:59:19;;;;;;;5.43;3.08;;;;;;;11.77;64.06;99769.16;5075352;28;20392;-80
2022/04/13 01:01:49;;;;;;;4.95;2.85;;;;;;;11.77;64.42;99765.59;5075589;28;20043;-81
2022/04/13 01:04:16;;;;;;;5.97;3.00;;;;;;;11.74;66.11;99763.94;5075660;28;20028;-81
2022/04/13 01:06:43;;;;;;;4.60;2.80;;;;;;;11.68;65.03;99764.19;5075346;28;20028;-81
2022/04/13 01:09:10;;;;;;;5.43;2.72;;;;;;;11.63;64.62;99761.72;5075447;28;20032;-80
2022/04/13 01:11:35;;;;;;;6.40;3.00;;;;;;;11.72;63.41;99772.03;5073999;28;20060;-80
2022/04/13 01:14:00;;;;;;;5.07;3.10;;;;;;;11.75;63.37;99764.81;5073785;28;20051;-80
2022/04/13 01:16:26;;;;;;;4.75;2.95;;;;;;;11.77;62.69;99773.63;5075698;28;20024;-81
2022/04/13 01:18:53;;;;;;;6.05;3.17;;;;;;;11.77;63.21;99776.31;5075522;28;20021;-81
2022/04/13 01:21:23;;;;;;;4.22;2.78;;;;;;;11.76;63.00;99777.22;5075541;28;20033;-81
2022/04/13 01:23:50;;;;;;;5.53;3.05;;;;;;;11.81;62.25;99786.78;5074006;28;20367;-80
2022/04/13 01:26:16;;;;;;;5.07;2.58;;;;;;;11.81;62.54;99784.13;5075137;28;20062;-80
2022/04/13 01:28:42;;;;;;;4.10;2.65;;;;;;;11.79;62.85;99780.66;5072762;28;20462;-80
2022/04/13 01:31:07;;;;;;;4.68;2.90;;;;;;;11.78;62.67;99786.03;5074764;28;20032;-80
2022/04/13 01:33:33;;;;;;;5.28;2.67;;;;;;;11.80;62.34;99793.06;5074623;28;20017;-80
2022/04/13 01:36:02;;;;;;;5.35;3.15;;;;;;;11.82;61.87;99793.91;5073174;28;20016;-81
2022/04/13 01:38:28;;;;;;;5.55;2.97;;;;;;;11.84;62.22;99796.50;5074885;28;20028;-81
2022/04/13 01:40:55;;;;;;;5.55;3.03;;;;;;;11.78;62.82;99794.94;5075021;28;20029;-81
2022/04/13 01:43:20;;;;;;;8.18;2.88;;;;;;;11.75;62.98;99802.25;5074926;28;20024;-80
2022/04/13 01:45:45;;;;;;;6.50;2.80;;;;;;;11.68;63.88;99797.16;5076171;28;20093;-81
2022/04/13 01:48:11;;;;;;;4.43;2.83;;;;;;;11.58;64.61;99795.81;5080883;28;20032;-81
2022/04/13 01:50:36;;;;;;;5.53;2.88;;;;;;;11.46;64.96;99800.75;5082215;28;20020;-81
2022/04/13 01:53:01;;;;;;;7.55;2.85;;;;;;;11.44;65.07;99805.25;5080567;28;20036;-81
2022/04/13 01:55:26;;;;;;;5.55;2.90;;;;;;;11.42;65.71;99795.56;5080821;28;20031;-81
2022/04/13 01:57:52;;;;;;;5.68;2.45;;;;;;;11.41;65.00;99800.06;5082700;28;20516;-81
2022/04/13 02:00:17;;;;;;;5.72;2.83;;;;;;;11.41;64.86;99810.75;5082689;28;20021;-81
2022/04/13 02:02:42;;;;;;;4.07;2.63;;;;;;;11.40;65.89;99806.34;5080348;28;20021;-81
2022/04/13 02:05:09;;;;;;;7.00;2.97;;;;;;;11.37;66.24;99817.16;5072900;28;20447;-81
2022/04/13 02:07:35;;;;;;;6.22;2.70;;;;;;;11.47;64.80;99812.28;5074839;28;20104;-80
2022/04/13 02:10:00;;;;;;;5.72;2.70;;;;;;;11.44;64.59;99810.59;5074977;28;20056;-81
2022/04/13 02:12:25;;;;;;;6.35;3.05;;;;;;;11.44;65.34;99810.59;5076058;28;20381;-81
2022/04/13 02:14:51;;;;;;;4.97;2.90;;;;;;;11.52;64.21;99818.31;5078516;28;20043;-81
2022/04/13 02:17:16;;;;;;;5.05;2.80;;;;;;;11.61;63.52;99823.28;5079377;28;20025;-81
2022/04/13 02:19:43;;;;;;;4.90;2.65;;;;;;;11.62;63.38;99829.50;5081337;28;20077;-81
2022/04/13 02:22:08;;;;;;;7.63;2.95;;;;;;;11.64;63.50;99819.63;5080793;28;20036;-81
2022/04/13 02:24:38;;;;;;;5.70;3.13;;;;;;;11.57;64.04;99820.81;5079233;28;20017;-81
2022/04/13 02:27:03;;;;;;;5.95;2.88;;;;;;;11.50;64.35;99812.16;5080129;28;20021;-81
2022/04/13 02:29:29;;;;;;;4.22;2.90;;;;;;;11.49;64.42;99824.66;5081240;28;20097;-81
2022/04/13 02:31:54;;;;;;;4.68;2.60;;;;;;;11.50;64.05;99821.06;5079477;28;20115;-81
2022/04/13 02:34:19;;;;;;;5.38;2.35;;;;;;;11.48;64.46;99806.00;5080192;28;20473;-81
2022/04/13 02:36:44;;;;;;;7.70;3.30;;;;;;;11.42;65.79;99811.59;5079942;28;20032;-81
2022/04/13 02:39:10;;;;;;;6.40;2.83;;;;;;;11.38;65.62;99822.44;5076327;28;20025;-81
2022/04/13 02:41:35;;;;;;;6.55;2.85;;;;;;;11.34;65.44;99819.97;5073441;28;20028;-81
2022/04/13 02:44:01;;;;;;;6.03;2.97;;;;;;;11.28;65.88;99816.63;5073612;28;20032;-80
2022/04/13 02:46:26;;;;;;;6.40;3.20;;;;;;;11.22;66.36;99819.53;5075670;28;20020;-81
2022/04/13 02:48:51;;;;;;;5.88;2.95;;;;;;;11.14;66.60;99813.59;5080085;28;20040;-81
2022/04/13 02:51:17;;;;;;;5.05;2.95;;;;;;;11.11;66.43;99827.09;5080955;28;20032;-82
2022/04/13 02:53:42;;;;;;;5.82;2.38;;;;;;;11.11;66.80;99819.06;5078562;28;20020;-82
2022/04/13 02:56:07;;;;;;;6.95;3.00;;;;;;;11.05;67.37;99825.56;5080584;28;20028;-82
2022/04/13 02:58:33;;;;;;;5.85;3.03;;;;;;;11.03;67.64;99827.41;5084384;28;20039;-81
2022/04/13 03:00:58;;;;;;;5.28;2.60;;;;;;;11.12;66.36;99818.16;5084751;28;20044;-82
2022/04/13 03:03:23;;;;;;;5.57;2.70;;;;;;;11.12;66.26;99826.16;5083115;28;20029;-81
2022/04/13 03:05:48;;;;;;;6.25;2.65;;;;;;;11.13;65.91;99826.09;5080610;28;20033;-81
2022/04/13 03:08:14;;;;;;;4.07;2.40;;;;;;;11.06;66.87;99829.94;5082009;28;20028;-81
2022/04/13 03:10:39;;;;;;;6.00;3.08;;;;;;;11.02;66.32;99831.88;5080990;28;20032;-81
2022/04/13 03:13:05;;;;;;;6.65;2.92;;;;;;;11.03;66.71;99832.75;5080411;28;20043;-81
2022/04/13 03:15:30;;;;;;;7.03;3.15;;;;;;;11.00;66.98;99831.06;5077144;28;20059;-81
2022/04/13 03:17:55;;;;;;;4.90;2.75;;;;;;;10.95;68.06;99836.56;5073255;28;20502;-81
2022/04/13 03:20:20;;;;;;;4.68;2.88;;;;;;;10.92;68.16;99830.50;5076662;28;20119;-82
2022/04/13 03:22:46;;;;;;;5.00;2.90;;;;;;;10.86;68.87;99836.06;5079850;28;20025;-81
2022/04/13 03:25:11;;;;;;;5.38;2.90;;;;;;;10.82;68.77;99838.00;5083081;28;20016;-81
2022/04/13 03:27:37;;;;;;;5.80;3.10;;;;;;;10.75;69.78;99826.66;5083407;28;20028;-82
2022/04/13 03:30:04;;;;;;;5.45;2.63;;;;;;;10.65;70.52;99828.81;5082284;28;20036;-82
2022/04/13 03:32:38;;;;;;;6.32;2.80;;;;;;;10.58;70.55;99833.53;5081125;28;20512;-82
2022/04/13 03:35:05;;;;;;;3.72;2.72;;;;;;;10.54;70.83;99828.38;5079804;28;20096;-82
2022/04/13 03:37:30;;;;;;;6.00;2.67;;;;;;;10.57;69.67;99822.88;5082009;28;20100;-82
2022/04/13 03:39:55;;;;;;;5.07;2.70;;;;;;;10.54;70.40;99831.88;5083028;28;20080;-82
2022/04/13 03:42:21;;;;;;;4.30;2.88;;;;;;;10.46;71.13;99833.97;5079958;28;20044;-81
2022/04/13 03:44:46;;;;;;;3.97;2.60;;;;;;;10.56;69.97;99818.50;5080729;28;20069;-82
2022/04/13 03:47:12;;;;;;;4.70;2.85;;;;;;;10.50;70.51;99827.56;5080674;28;20039;-81
2022/04/13 03:49:37;;;;;;;5.78;2.55;;;;;;;10.52;69.47;99827.53;5080560;28;20481;-81
2022/04/13 03:52:03;;;;;;;5.90;2.70;;;;;;;10.45;70.26;99834.88;5079243;28;20462;-80
2022/04/13 03:54:28;;;;;;;6.78;2.67;;;;;;;10.44;70.68;99835.78;5080902;28;20435;-81
2022/04/13 03:56:53;;;;;;;3.90;2.42;;;;;;;10.38;70.62;99834.25;5082467;28;20100;-81
2022/04/13 03:59:20;;;;;;;4.82;2.53;;;;;;;10.32;70.70;99832.66;5082243;28;20092;-81
2022/04/13 04:01:45;;;;;;;8.65;6.40;;;;;;;10.23;71.19;99835.66;5083541;28;20035;-81
2022/04/13 04:04:10;;;;;;;6.15;4.18;;;;;;;10.16;71.45;99833.22;5083117;28;20024;-81
2022/04/13 04:06:36;;;;;;;6.57;3.10;;;;;;;10.14;71.77;99837.72;5081886;28;20028;-81
2022/04/13 04:09:01;;;;;;;5.03;2.65;;;;;;;10.15;70.83;99841.28;5083509;28;20021;-81
2022/04/13 04:11:26;;;;;;;4.43;3.08;;;;;;;10.17;70.93;99850.97;5081246;28;20031;-81
2022/04/13 04:13:52;;;;;;;4.38;2.90;;;;;;;10.16;70.98;99848.34;5081746;28;20081;-81
2022/04/13 04:16:17;;;;;;;4.22;2.78;;;;;;;10.19;70.79;99858.03;5082999;28;20032;-82
2022/04/13 04:18:42;;;;;;;5.85;2.80;;;;;;;10.17;70.65;99858.97;5083423;28;20444;-81
2022/04/13 04:21:09;;;;;;;6.20;2.75;;;;;;;10.13;71.45;99864.44;5083257;28;20016;-81
2022/04/13 04:23:34;;;;;;;4.20;2.67;;;;;;;10.08;72.75;99866.41;5083153;28;20028;-82
2022/04/13 04:26:01;;;;;;;5.78;2.72;;;;;;;10.05;72.48;99864.75;5082011;28;20081;-82
2022/04/13 04:28:26;;;;;;;5.32;2.63;;;;;;;9.91;73.75;99871.41;5077548;28;20031;-81
2022/04/13 04:30:51;;;;;;;7.63;3.33;;;;;;;9.81;73.87;99870.88;5075989;28;20028;-81
2022/04/13 04:33:17;;;;;;;6.65;3.08;;;;;;;9.77;73.67;99868.31;5075923;28;20029;-81
2022/04/13 04:35:49;;;;;;;6.30;2.88;;;;;;;9.78;73.26;99865.63;5074526;28;20024;-81
2022/04/13 04:38:14;;;;;;;5.93;3.00;;;;;;;9.80;73.37;99865.56;5076251;28;20081;-81
2022/04/13 04:40:40;;;;;;;7.63;2.95;;;;;;;9.77;74.03;99868.31;5076307;28;20107;-81
2022/04/13 04:43:05;;;;;;;5.85;2.90;;;;;;;9.68;74.90;99870.41;5075978;28;20496;-81
2022/04/13 04:45:30;;;;;;;5.57;3.25;;;;;;;9.65;74.80;99880.28;5075950;28;20082;-80
2022/04/13 04:47:57;;;;;;;5.40;3.35;;;;;;;9.64;75.21;99873.22;5076138;28;20021;-81
2022/04/13 04:50:23;;;;;;;7.45;3.10;;;;;;;9.58;75.92;99869.84;5077009;28;20040;-81
2022/04/13 04:52:49;;;;;;;5.60;3.50;;;;;;;9.50;76.34;99871.88;5076426;28;20026;-82
2022/04/13 04:55:19;;;;;;;9.18;4.43;;;;;;;9.48;76.03;99874.56;5075886;28;20382;-81
2022/04/13 04:57:46;;;;;;;7.65;4.70;;;;;;;9.41;76.94;99883.69;5075222;28;20056;-82
2022/04/13 05:00:19;;;;;;;6.60;3.55;;;;;;;9.37;77.29;99882.03;5075610;28;20025;-82
2022/04/13 05:02:51;;;;;;;;;;;;;;;9.35;77.18;99879.44;5074967;28;20044;-82
2022/04/13 05:05:18;;;;;;;6.47;3.80;;;;;;;9.36;77.49;99886.50;5073789;28;19998;-81
2022/04/13 05:07:44;;;;;;;7.47;3.42;;;;;;;9.38;77.68;99881.13;5075354;28;20024;-82
2022/04/13 05:10:10;;;;;;;4.82;3.28;;;;;;;9.44;76.57;99883.59;5075308;28;20025;-82
2022/04/13 05:12:53;;;;;;;8.68;3.70;;;;;;;9.42;77.96;99896.09;5075039;28;20017;-83
2022/04/13 05:15:19;;;;;;;5.25;3.47;;;;;;;9.39;77.56;99897.06;5073559;28;20400;-83
2022/04/13 05:17:44;;;;;;;6.45;3.15;;;;;;;9.42;78.02;99895.22;5074822;28;20033;-83
2022/04/13 05:20:10;;;;;;;5.28;3.13;;;;;;;9.42;77.98;99904.09;5073723;28;20024;-83
2022/04/13 05:22:36;;;;;;;4.50;2.92;;;;;;;9.42;78.62;99904.09;5074762;28;20032;-83
2022/04/13 05:25:06;;;;;;;6.60;3.35;;;;;;;9.42;78.63;99906.75;5074644;28;20020;-83
2022/04/13 05:27:32;;;;;;;5.03;3.28;;;;;;;9.47;77.49;99903.94;5074986;28;20021;-83
2022/04/13 05:29:57;;;;;;;8.48;4.63;;;;;;;9.52;78.48;99911.78;5075168;28;20026;-83
2022/04/13 05:32:23;;;;;;;8.35;3.65;;;;;;;9.58;78.94;99911.59;5073170;28;20021;-83
2022/04/13 05:34:48;;;;;;;5.50;3.17;;;;;;;9.63;78.20;99908.78;5073127;28;20035;-83
2022/04/13 05:37:13;;;;;;;6.40;3.40;;;;;;;9.69;76.82;99909.44;5073934;28;20181;-83
2022/04/13 05:39:39;;;;;;;4.55;2.63;;;;;;;9.79;77.25;99914.50;5074538;28;20028;-83
2022/04/13 05:42:04;;;;;;;5.00;2.90;;;;;;;9.91;75.19;99918.53;5074527;28;20473;-82
2022/04/13 05:44:30;;;;;;;4.38;2.70;;;;;;;10.01;74.48;99919.97;5074622;28;20025;-83
2022/04/13 05:46:55;;;;;;;6.68;2.85;;;;;;;10.09;73.62;99927.72;5074189;28;20031;-83
2022/04/13 05:49:20;;;;;;;5.72;2.92;;;;;;;10.17;73.39;99931.00;5074426;28;20451;-83
2022/04/13 05:51:46;;;;;;;5.10;2.72;;;;;;;10.25;73.20;99932.53;5072854;28;20079;-82
2022/04/13 05:54:11;;;;;;;5.03;2.75;;;;;;;10.30;72.85;99941.25;5074397;28;20028;-84
2022/04/13 05:56:37;;;;;;;4.47;3.10;;;;;;;10.32;73.12;99944.75;5074640;28;20604;-83
2022/04/13 05:59:02;;;;;;;7.30;2.90;;;;;;;10.38;72.83;99947.22;5074240;28;20381;-82
2022/04/13 06:01:27;;;;;;;4.40;2.88;;;;;;;10.40;73.02;99941.81;5074112;28;20024;-83
2022/04/13 06:03:53;;;;;;;6.50;3.17;;;;;;;10.41;74.96;99942.69;5072997;28;20033;-84
2022/04/13 06:06:18;;;;;;;6.10;2.83;;;;;;;10.38;76.37;99944.53;5097507;22;20044;-85
2022/04/13 06:08:43;;;;;;;5.40;3.22;;;;;;;10.36;76.25;99946.38;5073500;28;20048;-86
2022/04/13 06:11:08;;;;;;;5.78;3.13;;;;;;;10.34;76.09;99948.22;5075244;28;20036;-85
2022/04/13 06:13:34;;;;;;;5.70;3.30;;;;;;;10.35;75.13;99949.97;5073641;28;20135;-85
2022/04/13 06:15:59;;;;;;;6.90;3.78;;;;;;;10.39;75.55;99945.38;5076186;28;20397;-84
2022/04/13 06:18:24;;;;;;;5.15;3.55;;;;;;;10.42;75.37;99955.09;5074480;28;20059;-85
2022/04/13 06:20:50;;;;;;;6.63;3.30;;;;;;;10.48;74.71;99954.88;5076044;28;20461;-84
2022/04/13 06:23:15;;;;;;;7.15;3.40;;;;;;;10.57;73.88;99951.03;5073319;28;20389;-86
2022/04/13 06:25:41;;;;;;;6.65;3.15;;;;;;;10.64;72.66;99954.38;5074890;28;20051;-85
2022/04/13 06:28:06;;;;;;;4.70;2.90;;;;;;;10.72;72.44;99963.00;5073452;28;20073;-85
2022/04/13 06:30:31;;;;;;;6.07;3.40;;;;;;;10.79;73.28;99958.28;5073158;28;20025;-84
2022/04/13 06:32:56;;;;;;;5.28;3.22;;;;;;;10.86;72.07;99964.28;5073345;28;20474;-86
2022/04/13 06:35:23;;;;;;;5.45;2.92;;;;;;;10.92;71.48;99967.59;5074399;28;20028;-87
2022/04/13 06:37:48;;;;;;;7.35;3.10;;;;;;;10.98;71.51;99973.66;5074214;28;20024;-87
2022/04/13 06:40:14;;;;;;;7.05;3.30;;;;;;;11.02;70.74;99970.81;5072844;28;20024;-86
2022/04/13 06:42:40;;;;;;;5.15;3.50;;;;;;;11.09;71.26;99973.22;5073007;28;20028;-87
2022/04/13 06:45:07;;;;;;;6.97;3.20;;;;;;;11.18;72.68;99980.94;5072550;28;20034;-87
2022/04/13 06:47:32;;;;;;;4.65;2.90;;;;;;;11.24;73.15;99986.03;5072489;28;20107;-87
2022/04/13 06:49:58;;;;;;;6.47;3.33;;;;;;;11.30;77.03;99990.28;5072631;28;20052;-87
2022/04/13 06:52:24;;;;;;;6.93;4.10;;;;;;;11.23;78.20;99992.31;5072674;28;20021;-87
2022/04/13 06:54:49;;;;;;;5.95;3.70;;;;;;;11.29;77.49;99993.84;5072938;28;20024;-86
2022/04/13 06:57:14;;;;;;;6.13;3.90;;;;;;;11.34;77.61;100001.72;5072549;28;20107;-87
2022/04/13 06:59:39;;;;;;;8.98;3.78;;;;;;;11.35;75.89;99995.44;5073957;28;20033;-87
2022/04/13 07:02:12;;;;;;;6.10;3.50;;;;;;;11.39;76.56;100005.94;5072632;28;20024;-86
2022/04/13 07:04:38;;;;;;;6.30;3.90;;;;;;;11.41;76.10;100008.59;5072776;28;20419;-86
2022/04/13 07:07:03;;;;;;;8.32;4.03;;;;;;;11.45;77.62;100007.53;5072612;28;20039;-86
2022/04/13 07:09:29;;;;;;;5.72;4.68;;;;;;;11.49;79.97;100009.13;5074373;28;20408;-87
2022/04/13 07:11:54;;;;;;;7.57;4.13;;;;;;;11.56;79.68;100009.78;5072876;28;20115;-87
2022/04/13 07:14:20;;;;;;;5.78;4.20;;;;;;;11.68;79.84;100008.44;5073968;28;20491;-87
2022/04/13 07:16:45;;;;;;;6.53;3.67;;;;;;;11.71;78.05;100011.00;5072521;28;20055;-87
2022/04/13 07:19:10;;;;;;;6.22;3.83;;;;;;;11.79;77.36;100017.84;5072583;28;20113;-85
2022/04/13 07:21:36;;;;;;;6.78;3.95;;;;;;;11.90;80.25;100015.63;5072624;28;20021;-86
2022/04/13 07:24:02;;;;;;;7.63;4.28;;;;;;;11.95;79.78;100018.97;5072052;28;20016;-87
2022/04/13 07:26:27;;;;;;;9.18;4.70;;;;;;;12.08;81.60;100029.19;5072398;28;20016;-86
2022/04/13 07:28:53;;;;;;;7.43;4.10;;;;;;;12.13;80.11;100027.22;5072443;28;20035;-86
2022/04/13 07:31:19;;;;;;;8.50;3.90;;;;;;;12.21;79.03;100034.06;5073628;28;20021;-87
2022/04/13 07:33:47;;;;;;;6.07;3.97;;;;;;;12.30;79.25;100039.03;5072950;28;20441;-86
2022/04/13 07:36:12;;;;;;;8.20;3.95;;;;;;;12.37;77.78;100040.50;5072323;28;20477;-86
2022/04/13 07:38:38;;;;;;;6.85;3.67;;;;;;;12.51;78.00;100041.75;5073731;28;20116;-86
2022/04/13 07:41:04;;;;;;;6.82;4.30;;;;;;;12.63;79.14;100041.22;5073532;28;20389;-86
2022/04/13 07:43:29;;;;;;;11.55;4.15;;;;;;;12.75;76.90;100033.59;5072079;28;20020;-85
2022/04/13 07:45:54;;;;;;;5.55;3.78;;;;;;;12.89;76.83;100037.47;5072491;28;20027;-87
2022/04/13 07:48:20;;;;;;;9.57;3.78;;;;;;;12.99;78.41;100033.44;5073804;28;20055;-87
2022/04/13 07:50:47;;;;;;;8.10;4.20;;;;;;;13.09;79.20;100038.41;5072227;28;20111;-86
2022/04/13 07:53:13;;;;;;;5.93;3.70;;;;;;;13.19;77.62;100029.03;5072964;28;20062;-86
2022/04/13 07:55:38;;;;;;;7.60;3.95;;;;;;;13.30;77.33;100033.88;5072043;28;20024;-86
2022/04/13 07:58:03;;;;;;;7.90;4.00;;;;;;;13.47;76.11;100045.66;5072513;28;20028;-86
2022/04/13 08:00:35;;;;;;;4.78;3.60;;;;;;;13.57;76.63;100046.13;5072169;28;20497;-86
2022/04/13 08:03:00;;;;;;;9.10;4.13;;;;;;;13.70;76.27;100049.97;5071937;28;20101;-85
2022/04/13 08:05:25;;;;;;;7.32;3.92;;;;;;;13.90;75.77;100034.72;5071882;28;20107;-85
2022/04/13 08:07:51;;;;;;;6.30;3.78;;;;;;;14.00;72.00;100045.00;5073595;28;20412;-87
2022/04/13 08:10:16;;;;;;;6.55;3.85;;;;;;;14.13;71.34;100051.53;5073630;28;20029;-86
2022/04/13 08:12:42;;;;;;;5.35;3.67;;;;;;;14.21;71.92;100055.66;5072053;28;20016;-86
2022/04/13 08:15:09;;;;;;;7.50;3.60;;;;;;;14.35;72.58;100058.53;5072357;28;20119;-86
2022/04/13 08:17:34;;;;;;;9.80;4.05;;;;;;;14.51;70.15;100063.13;5072063;28;20074;-86
2022/04/13 08:20:00;;;;;;;6.63;3.80;;;;;;;14.66;69.40;100061.50;5073266;28;20025;-84
2022/04/13 08:22:26;;;;;;;8.15;4.10;;;;;;;14.83;69.74;100066.00;5071917;28;20024;-86
2022/04/13 08:24:52;;;;;;;7.57;4.25;;;;;;;14.94;67.60;100064.59;5072398;28;20051;-88
2022/04/13 08:27:18;;;;;;;6.88;4.15;;;;;;;15.11;67.49;100069.09;5071909;28;20063;-87
2022/04/13 08:29:43;;;;;;;6.70;4.20;;;;;;;15.28;69.24;100068.19;5071628;28;20025;-86
2022/04/13 08:32:08;;;;;;;7.68;4.43;;;;;;;15.49;68.83;100081.44;5073644;28;20043;-86
2022/04/13 08:34:34;;;;;;;8.43;4.35;;;;;;;15.77;65.15;100076.34;5071691;28;20175;-86
2022/04/13 08:36:59;;;;;;;8.60;4.93;;;;;;;15.83;64.51;100072.44;5072262;28;20059;-87
2022/04/13 08:39:25;;;;;;;7.88;4.53;;;;;;;15.90;63.25;100079.22;5075702;28;20534;-86
2022/04/13 08:42:10;;;;;;;9.95;4.38;;;;;;;15.99;62.40;100094.00;5075275;28;20025;-86
2022/04/13 08:44:48;;;;;;;9.00;4.85;;;;;;;16.12;63.56;100090.66;5075180;28;20497;-86
2022/04/13 08:47:20;;;;;;;9.93;4.53;;;;;;;16.27;64.23;100091.59;5076690;28;20025;-84
2022/04/13 08:49:49;;;;;;;7.63;4.38;;;;;;;16.24;63.61;100091.78;5075670;28;20046;-86
2022/04/13 08:52:17;;;;;;;9.90;4.40;;;;;;;16.37;65.83;100084.72;5076180;28;20107;-85
2022/04/13 08:55:07;;;;;;;12.85;4.53;;;;;;;16.58;61.37;100094.34;5074932;28;20025;-86
2022/04/13 08:57:38;;;;;;;9.85;4.60;;;;;;;16.63;61.78;100095.81;5075399;28;20074;-84
2022/04/13 09:00:16;;;;;;;11.18;5.30;;;;;;;16.82;59.59;100092.03;5075564;28;20020;-85
2022/04/13 09:02:50;;;;;;;9.85;4.45;;;;;;;16.86;60.22;100088.19;5076180;28;20025;-86
2022/04/13 09:05:27;;;;;;;9.40;4.18;;;;;;;17.00;58.66;100093.72;5075161;28;20538;-86
2022/04/13 09:08:09;;;;;;;10.15;4.70;;;;;;;17.05;57.16;100092.47;5074630;28;20036;-85
2022/04/13 09:10:36;;;;;;;8.27;5.05;;;;;;;17.11;58.19;100095.75;5074650;28;20097;-86
2022/04/13 09:13:02;;;;;;;9.50;4.30;;;;;;;17.15;59.82;100098.19;5074779;28;20078;-85
2022/04/13 09:15:27;;;;;;;7.63;4.95;;;;;;;17.11;59.13;100095.75;5074867;28;20028;-87
2022/04/13 09:17:53;;;;;;;11.48;4.82;;;;;;;17.22;60.25;100101.38;5075726;28;20374;-86
2022/04/13 09:20:19;;;;;;;9.35;5.07;;;;;;;17.12;58.92;100103.75;5075401;28;20084;-85
2022/04/13 09:22:46;;;;;;;10.63;5.13;;;;;;;17.34;59.99;100112.41;5074646;28;20036;-86
2022/04/13 09:25:11;;;;;;;10.32;4.50;;;;;;;17.49;58.90;100111.44;5074892;28;20493;-86
2022/04/13 09:27:38;;;;;;;12.73;5.30;;;;;;;17.57;59.13;100108.28;5074807;28;20020;-85
2022/04/13 09:30:07;;;;;;;10.68;4.95;;;;;;;17.46;58.94;100119.72;5074767;28;20021;-85
2022/04/13 09:32:32;;;;;;;8.13;5.07;;;;;;;17.39;60.62;100119.25;5076087;28;20503;-85
2022/04/13 09:34:59;;;;;;;8.45;4.38;;;;;;;17.55;61.91;100114.72;5074390;28;20115;-87
2022/04/13 09:37:25;;;;;;;11.05;4.38;;;;;;;17.72;61.32;100122.63;5075580;28;20031;-85
2022/04/13 09:39:51;;;;;;;9.43;4.80;;;;;;;17.76;58.79;100131.41;5074488;28;20114;-86
2022/04/13 09:42:16;;;;;;;8.32;4.63;;;;;;;17.72;57.88;100132.56;5073882;28;20023;-85
2022/04/13 09:44:42;;;;;;;11.02;4.70;;;;;;;17.61;59.01;100130.53;5074098;28;20439;-85
2022/04/13 09:47:12;;;;;;;9.07;4.43;;;;;;;17.45;60.16;100126.09;5074329;28;20386;-85
2022/04/13 09:49:56;;;;;;;13.68;5.30;;;;;;;17.44;60.92;100132.47;5075185;28;20020;-86
2022/04/13 09:52:41;;;;;;;8.43;4.80;;;;;;;17.53;60.99;100136.41;5075519;28;20385;-86
2022/04/13 09:55:08;;;;;;;10.38;5.10;;;;;;;17.78;60.90;100128.63;5074901;28;20063;-86
2022/04/13 09:57:34;;;;;;;9.80;5.00;;;;;;;18.03;59.64;100129.75;5074089;28;20036;-85
2022/04/13 10:00:01;;;;;;;12.20;5.50;;;;;;;18.11;60.22;100127.44;5074397;28;20025;-85
2022/04/13 10:02:37;;;;;;;10.23;4.55;;;;;;;18.20;61.19;100134.09;5074074;28;20056;-85
2022/04/13 10:05:04;;;;;;;11.85;4.75;;;;;;;18.64;60.38;100132.13;5075358;28;20363;-86
2022/04/13 10:07:29;;;;;;;9.07;5.07;;;;;;;18.88;57.06;100130.56;5073895;28;20032;-86
2022/04/13 10:09:54;;;;;;;11.73;5.30;;;;;;;19.06;58.20;100135.69;5073535;28;20090;-86
2022/04/13 10:12:20;;;;;;;9.85;5.40;;;;;;;18.95;55.03;100136.41;5074710;28;20033;-86
2022/04/13 10:14:46;;;;;;;11.25;5.20;;;;;;;18.99;55.55;100127.16;5076176;28;20094;-85
2022/04/13 10:17:13;;;;;;;9.50;5.25;;;;;;;19.41;55.54;100131.53;5074876;28;20024;-86
2022/04/13 10:19:39;;;;;;;13.05;5.38;;;;;;;19.22;54.67;100140.09;5073341;28;20027;-85
2022/04/13 10:22:05;;;;;;;9.75;5.30;;;;;;;19.29;55.53;100128.72;5075085;28;20389;-86
2022/04/13 10:24:35;;;;;;;10.63;5.30;;;;;;;19.76;57.38;100130.91;5073585;28;20493;-86
2022/04/13 10:27:11;;;;;;;10.77;5.25;;;;;;;19.54;54.82;100127.00;5073580;28;20100;-84
2022/04/13 10:29:41;;;;;;;10.32;3.78;;;;;;;20.16;52.40;100126.28;5073517;28;20024;-86
2022/04/13 10:32:12;;;;;;;11.45;4.65;;;;;;;19.95;53.35;100123.25;5073257;28;20501;-86
2022/04/13 10:34:39;;;;;;;11.23;4.38;;;;;;;20.32;52.67;100130.56;5072989;28;20123;-85
2022/04/13 10:37:06;;;;;;;11.15;4.32;;;;;;;20.40;51.52;100130.88;5072852;28;20024;-86
2022/04/13 10:39:32;;;;;;;10.07;4.65;;;;;;;20.29;51.51;100122.66;5072846;28;20028;-86
2022/04/13 10:41:57;;;;;;;10.15;4.60;;;;;;;20.37;52.98;100117.53;5073134;28;20367;-86
2022/04/13 10:44:34;;;;;;;8.27;3.13;;;;;;;20.79;50.71;100121.69;5074613;28;20020;-86
2022/04/13 10:47:03;;;;;;;14.30;3.85;;;;;;;20.97;50.72;100124.84;5074255;28;20054;-87
2022/04/13 10:49:34;;;;;;;10.98;3.95;;;;;;;21.21;50.96;100125.78;5074343;28;20024;-87
2022/04/13 10:52:08;;;;;;;10.77;3.65;;;;;;;21.24;49.88;100122.81;5072701;28;20021;-86
2022/04/13 10:54:36;;;;;;;9.02;3.80;;;;;;;20.81;49.90;100119.72;5072739;28;20499;-86
2022/04/13 10:57:05;;;;;;;10.27;3.72;;;;;;;21.25;51.38;100124.56;5072519;28;20024;-85
2022/04/13 10:59:47;;;;;;;10.40;3.25;;;;;;;21.46;50.43;100123.00;5072433;28;20024;-86
2022/04/13 11:02:55;;;;;;;13.55;3.75;;;;;;;21.66;50.07;100130.44;5072836;28;20497;-85
2022/04/13 11:05:25;;;;;;;10.85;3.60;;;;;;;21.36;49.92;100123.72;5072884;28;20075;-86
2022/04/13 11:07:59;;;;;;;12.02;3.72;;;;;;;21.73;52.39;100132.63;5072702;28;20032;-87
2022/04/13 11:10:25;;;;;;;11.43;4.05;;;;;;;21.52;50.91;100131.50;5072545;28;20025;-86
2022/04/13 11:12:52;;;;;;;10.90;3.92;;;;;;;21.86;50.25;100135.22;5072525;28;20027;-85
2022/04/13 11:15:18;;;;;;;9.82;3.72;;;;;;;22.01;50.63;100137.75;5073624;28;20027;-85
2022/04/13 11:17:43;;;;;;;12.98;4.00;;;;;;;21.41;49.99;100136.94;5072693;28;20033;-85
2022/04/13 11:20:24;;;;;;;13.40;3.80;;;;;;;21.80;51.15;100124.88;5072513;28;20020;-85
2022/04/13 11:23:12;;;;;;;9.98;4.07;;;;;;;21.93;49.62;100131.06;5072503;28;20096;-86
2022/04/13 11:25:51;;;;;;;13.82;4.68;;;;;;;21.97;50.31;100135.28;5072437;28;20021;-84
2022/04/13 11:28:25;;;;;;;13.15;4.35;;;;;;;22.15;48.68;100142.91;5072889;28;20017;-85